createdAt,value
2023-02-13T00:01:01.959Z,111.67
2023-02-13T00:03:30.292Z,113.47
2023-02-13T00:05:58.641Z,117.50
2023-02-13T00:08:26.940Z,112.17
2023-02-13T00:10:56.812Z,108.43
2023-02-13T00:13:25.463Z,116.17
2023-02-13T00:15:57.842Z,109.47
2023-02-13T00:18:26.138Z,102.80
2023-02-13T00:21:03.490Z,107.37
2023-02-13T00:23:32.285Z,108.03
2023-02-13T00:26:02.469Z,108.97
2023-02-13T00:28:30.725Z,106.17
2023-02-13T00:31:04.843Z,105.67
2023-02-13T00:33:33.194Z,106.70
2023-02-13T00:36:06.560Z,104.87
2023-02-13T00:38:34.912Z,105.40
2023-02-13T00:41:04.559Z,106.57
2023-02-13T00:43:32.896Z,102.27
2023-02-13T00:46:01.261Z,102.63
2023-02-13T00:48:30.511Z,96.27
2023-02-13T00:50:59.187Z,96.40
2023-02-13T00:53:27.728Z,100.30
2023-02-13T00:55:55.994Z,90.53
2023-02-13T00:58:25.674Z,90.33
2023-02-13T01:00:54.125Z,94.87
2023-02-13T01:03:22.492Z,92.40
2023-02-13T01:05:51.039Z,91.83
2023-02-13T01:08:19.786Z,92.60
2023-02-13T01:10:48.474Z,97.53
2023-02-13T01:13:18.528Z,92.67
2023-02-13T01:15:48.567Z,95.33
2023-02-13T01:18:17.238Z,95.47
2023-02-13T01:20:45.713Z,90.40
2023-02-13T01:23:13.986Z,96.90
2023-02-13T01:25:42.667Z,92.97
2023-02-13T01:28:11.000Z,90.97
2023-02-13T01:30:39.379Z,98.87
2023-02-13T01:33:11.023Z,97.47
2023-02-13T01:35:40.690Z,95.13
2023-02-13T01:38:08.911Z,95.10
2023-02-13T01:40:37.217Z,94.37
2023-02-13T01:43:05.429Z,98.13
2023-02-13T01:45:33.997Z,99.47
2023-02-13T01:48:05.730Z,99.87
2023-02-13T01:50:36.498Z,96.70
2023-02-13T01:53:06.932Z,93.27
2023-02-13T01:55:35.480Z,96.43
2023-02-13T01:58:06.182Z,94.60
2023-02-13T02:00:34.438Z,93.20
2023-02-13T02:03:14.013Z,88.47
2023-02-13T02:05:43.729Z,85.27
2023-02-13T02:08:13.353Z,82.87
2023-02-13T02:10:41.600Z,84.83
2023-02-13T02:13:12.412Z,84.30
2023-02-13T02:15:40.919Z,85.00
2023-02-13T02:18:14.313Z,82.57
2023-02-13T02:21:14.909Z,84.93
2023-02-13T02:23:54.096Z,82.43
2023-02-13T02:27:00.768Z,81.57
2023-02-13T02:29:52.019Z,82.27
2023-02-13T02:32:27.106Z,82.93
2023-02-13T02:34:57.895Z,90.23
2023-02-13T02:37:41.984Z,81.77
2023-02-13T02:40:15.624Z,82.63
2023-02-13T02:42:49.214Z,84.60
2023-02-13T02:45:20.505Z,83.70
2023-02-13T02:48:09.443Z,80.83
2023-02-13T02:50:39.061Z,86.73
2023-02-13T02:53:12.090Z,82.43
2023-02-13T02:55:42.685Z,82.27
2023-02-13T02:58:31.341Z,86.43
2023-02-13T03:01:17.151Z,95.37
2023-02-13T03:04:04.467Z,93.37
2023-02-13T03:06:36.106Z,81.33
2023-02-13T03:09:25.448Z,91.77
2023-02-13T03:12:11.886Z,106.73
2023-02-13T03:14:40.213Z,86.50
2023-02-13T03:17:27.641Z,91.83
2023-02-13T03:20:19.826Z,90.93
2023-02-13T03:22:56.499Z,94.23
2023-02-13T03:25:34.574Z,95.83
2023-02-13T03:28:25.330Z,90.23
2023-02-13T03:31:01.828Z,90.03
2023-02-13T03:33:37.729Z,93.87
2023-02-13T03:36:29.545Z,90.40
2023-02-13T03:38:59.513Z,100.80
2023-02-13T03:41:31.442Z,96.47
2023-02-13T03:44:12.607Z,100.03
2023-02-13T03:46:42.302Z,99.93
2023-02-13T03:49:30.515Z,112.73
2023-02-13T03:52:01.310Z,82.47
2023-02-13T03:54:49.677Z,112.53
2023-02-13T03:57:37.308Z,93.80
2023-02-13T04:00:06.872Z,128.87
2023-02-13T04:02:35.971Z,110.10
2023-02-13T04:05:08.181Z,100.93
2023-02-13T04:07:37.825Z,97.87
2023-02-13T04:10:07.504Z,110.17
2023-02-13T04:12:39.651Z,89.80
2023-02-13T04:15:10.573Z,123.37
2023-02-13T04:17:40.326Z,92.47
2023-02-13T04:20:09.459Z,120.00
2023-02-13T04:22:44.832Z,105.80
2023-02-13T04:25:13.417Z,104.43
2023-02-13T04:27:41.683Z,82.40
2023-02-13T04:30:10.981Z,114.90
2023-02-13T04:32:39.205Z,99.57
2023-02-13T04:35:07.990Z,86.07
2023-02-13T04:37:36.211Z,99.97
2023-02-13T04:40:06.778Z,120.03
2023-02-13T04:42:35.001Z,84.33
2023-02-13T04:45:03.281Z,91.03
2023-02-13T04:47:31.493Z,93.30
2023-02-13T04:49:59.783Z,101.63
2023-02-13T04:52:28.095Z,103.73
2023-02-13T04:54:56.360Z,110.17
2023-02-13T04:57:26.066Z,97.77
2023-02-13T04:59:54.343Z,116.10
2023-02-13T05:02:22.556Z,92.17
2023-02-13T05:04:50.832Z,107.03
2023-02-13T05:07:19.074Z,104.63
2023-02-13T05:09:47.373Z,89.63
2023-02-13T05:12:15.589Z,94.83
2023-02-13T05:14:45.463Z,87.60
2023-02-13T05:17:13.764Z,96.40
2023-02-13T05:19:42.048Z,91.60
2023-02-13T05:22:28.250Z,79.90
2023-02-13T05:24:56.538Z,96.87
2023-02-13T05:27:24.778Z,102.07
2023-02-13T05:29:53.475Z,120.67
2023-02-13T05:32:21.711Z,127.43
2023-02-13T05:34:49.974Z,131.30
2023-02-13T05:37:18.194Z,110.03
2023-02-13T05:39:46.525Z,136.33
2023-02-13T05:42:14.751Z,152.03
2023-02-13T05:44:43.025Z,145.33
2023-02-13T05:47:12.701Z,116.33
2023-02-13T05:49:40.962Z,120.03
2023-02-13T05:52:09.226Z,108.50
2023-02-13T05:54:38.489Z,94.07
2023-02-13T05:57:06.737Z,135.43
2023-02-13T05:59:35.125Z,99.87
2023-02-13T06:02:03.364Z,152.63
2023-02-13T06:04:32.998Z,114.17
2023-02-13T06:07:01.339Z,105.93
2023-02-13T06:09:29.558Z,86.90
2023-02-13T06:11:57.855Z,94.77
2023-02-13T06:14:26.067Z,90.77
2023-02-13T06:16:54.304Z,93.77
2023-02-13T06:19:22.618Z,97.63
2023-02-13T06:21:52.237Z,110.50
2023-02-13T06:24:20.478Z,113.57
2023-02-13T06:26:48.701Z,102.10
2023-02-13T06:29:16.982Z,105.37
2023-02-13T06:31:45.246Z,97.83
2023-02-13T06:34:13.503Z,105.23
2023-02-13T06:36:42.731Z,96.83
2023-02-13T06:39:12.565Z,92.33
2023-02-13T06:41:40.815Z,107.00
2023-02-13T06:44:09.208Z,99.27
2023-02-13T06:46:37.618Z,96.77
2023-02-13T06:49:05.858Z,146.30
2023-02-13T06:51:34.130Z,89.27
2023-02-13T06:54:02.723Z,96.33
2023-02-13T06:56:32.931Z,94.63
2023-02-13T06:59:01.142Z,113.73
2023-02-13T07:01:29.481Z,105.53
2023-02-13T07:03:57.860Z,124.97
2023-02-13T07:06:26.118Z,85.10
2023-02-13T07:08:55.982Z,102.20
2023-02-13T07:11:24.995Z,101.33
2023-02-13T07:13:54.676Z,79.20
2023-02-13T07:16:22.993Z,76.97
2023-02-13T07:18:51.264Z,84.33
2023-02-13T07:21:19.501Z,70.37
2023-02-13T07:23:47.743Z,59.60
2023-02-13T07:26:16.291Z,83.60
2023-02-13T07:28:44.629Z,77.47
2023-02-13T07:31:14.390Z,79.00
2023-02-13T07:33:42.665Z,75.63
2023-02-13T07:36:11.035Z,74.33
2023-02-13T07:38:39.311Z,72.73
2023-02-13T07:41:07.548Z,73.73
2023-02-13T07:43:35.809Z,75.17
2023-02-13T07:46:04.406Z,65.97
2023-02-13T07:48:34.014Z,65.50
2023-02-13T07:51:02.749Z,62.10
2023-02-13T07:53:31.235Z,62.53
2023-02-13T07:55:59.643Z,62.37
2023-02-13T07:58:28.062Z,56.10
2023-02-13T08:00:56.593Z,61.57
2023-02-13T08:03:24.912Z,63.23
2023-02-13T08:05:54.598Z,53.33
2023-02-13T08:08:22.865Z,57.17
2023-02-13T08:11:08.691Z,52.43
2023-02-13T08:13:37.424Z,57.60
2023-02-13T08:16:06.123Z,58.63
2023-02-13T08:18:34.486Z,55.47
2023-02-13T08:21:05.006Z,61.50
2023-02-13T08:23:33.272Z,55.13
2023-02-13T08:26:02.449Z,57.43
2023-02-13T08:28:31.116Z,54.10
2023-02-13T08:30:59.671Z,51.80
2023-02-13T08:33:27.991Z,53.60
2023-02-13T08:35:56.601Z,52.33
2023-02-13T08:38:26.609Z,56.80
2023-02-13T08:40:57.850Z,54.37
2023-02-13T08:43:26.319Z,58.27
2023-02-13T08:45:54.699Z,60.10
2023-02-13T08:48:22.994Z,56.03
2023-02-13T08:50:51.251Z,52.77
2023-02-13T08:53:19.486Z,48.00
2023-02-13T08:55:55.199Z,47.77
2023-02-13T08:58:23.717Z,45.17
2023-02-13T09:00:52.072Z,44.37
2023-02-13T09:03:20.365Z,47.20
2023-02-13T09:05:48.717Z,49.53
2023-02-13T09:08:18.618Z,45.77
2023-02-13T09:10:47.148Z,48.93
2023-02-13T09:13:16.781Z,46.93
2023-02-13T09:15:45.018Z,51.67
2023-02-13T09:18:13.267Z,51.93
2023-02-13T09:20:41.518Z,54.73
2023-02-13T09:23:09.765Z,62.63
2023-02-13T09:25:38.315Z,59.30
2023-02-13T09:28:06.988Z,53.93
2023-02-13T09:30:36.875Z,51.90
2023-02-13T09:33:05.150Z,53.57
2023-02-13T09:35:33.636Z,50.73
2023-02-13T09:38:02.165Z,53.43
2023-02-13T09:40:33.135Z,54.80
2023-02-13T09:43:05.962Z,48.50
2023-02-13T09:45:34.300Z,50.00
2023-02-13T09:48:03.958Z,45.00
2023-02-13T09:50:33.484Z,42.93
2023-02-13T09:53:01.813Z,43.27
2023-02-13T09:55:37.310Z,39.70
2023-02-13T09:58:20.873Z,40.63
2023-02-13T10:00:51.114Z,40.97
2023-02-13T10:03:23.992Z,43.73
2023-02-13T10:05:57.973Z,44.40
2023-02-13T10:08:41.988Z,41.13
2023-02-13T10:11:17.837Z,36.47
2023-02-13T10:13:52.081Z,39.27
2023-02-13T10:16:22.217Z,34.97
2023-02-13T10:18:53.450Z,40.90
2023-02-13T10:21:23.566Z,44.70
2023-02-13T10:23:56.274Z,44.47
2023-02-13T10:26:27.196Z,44.17
2023-02-13T10:29:11.210Z,42.57
2023-02-13T10:31:40.299Z,39.27
2023-02-13T10:34:13.040Z,44.10
2023-02-13T10:36:43.499Z,32.77
2023-02-13T10:39:20.364Z,38.23
2023-02-13T10:41:51.751Z,40.50
2023-02-13T10:44:40.534Z,41.00
2023-02-13T10:47:15.400Z,38.23
2023-02-13T10:49:51.245Z,35.30
2023-02-13T10:52:25.356Z,36.70
2023-02-13T10:55:06.776Z,29.23
2023-02-13T10:57:41.349Z,36.07
2023-02-13T11:00:12.947Z,33.17
2023-02-13T11:02:41.426Z,42.77
2023-02-13T11:05:17.008Z,45.20
2023-02-13T11:07:46.852Z,54.87
2023-02-13T11:10:17.349Z,55.93
2023-02-13T11:12:45.783Z,42.57
2023-02-13T11:15:24.210Z,46.97
2023-02-13T11:17:52.536Z,42.50
2023-02-13T11:20:31.231Z,58.40
2023-02-13T11:23:12.365Z,55.80
2023-02-13T11:25:40.642Z,57.53
2023-02-13T11:28:10.511Z,48.33
2023-02-13T11:30:39.434Z,54.33
2023-02-13T11:33:08.632Z,49.80
2023-02-13T11:35:38.783Z,55.77
2023-02-13T11:38:15.589Z,50.57
2023-02-13T11:40:45.194Z,46.20
2023-02-13T11:43:18.801Z,44.90
2023-02-13T11:45:48.275Z,47.90
2023-02-13T11:48:22.397Z,45.20
2023-02-13T11:50:56.180Z,41.87
2023-02-13T11:53:25.747Z,41.17
2023-02-13T11:56:05.379Z,36.73
2023-02-13T11:58:33.852Z,37.13
2023-02-13T12:01:24.852Z,36.30
2023-02-13T12:04:03.607Z,36.83
2023-02-13T12:06:39.674Z,38.23
2023-02-13T12:09:12.735Z,36.40
2023-02-13T12:11:43.678Z,35.97
2023-02-13T12:14:12.658Z,33.63
2023-02-13T12:16:42.340Z,34.67
2023-02-13T12:19:13.568Z,32.83
2023-02-13T12:21:50.062Z,33.17
2023-02-13T12:24:24.164Z,30.53
2023-02-13T12:26:53.653Z,33.63
2023-02-13T12:29:44.291Z,31.83
2023-02-13T12:32:16.270Z,32.30
2023-02-13T12:35:16.358Z,35.33
2023-02-13T12:38:00.643Z,34.00
2023-02-13T12:40:41.252Z,30.23
2023-02-13T12:43:19.528Z,31.00
2023-02-13T12:45:49.164Z,30.17
2023-02-13T12:48:27.793Z,31.90
2023-02-13T12:51:04.165Z,33.80
2023-02-13T12:53:52.446Z,37.97
2023-02-13T12:56:27.640Z,41.33
2023-02-13T12:59:01.981Z,43.47
2023-02-13T13:02:07.503Z,41.03
2023-02-13T13:04:43.399Z,41.53
2023-02-13T13:07:30.008Z,42.50
2023-02-13T13:10:04.902Z,45.03
2023-02-13T13:12:40.036Z,44.87
2023-02-13T13:15:11.341Z,42.50
2023-02-13T13:17:49.951Z,45.60
2023-02-13T13:20:39.519Z,45.27
2023-02-13T13:23:10.630Z,43.43
2023-02-13T13:25:44.907Z,46.47
2023-02-13T13:28:15.649Z,43.33
2023-02-13T13:30:44.010Z,40.10
2023-02-13T13:33:15.476Z,43.40
2023-02-13T13:35:43.922Z,48.67
2023-02-13T13:38:14.037Z,52.07
2023-02-13T13:40:47.090Z,48.83
2023-02-13T13:43:21.124Z,46.47
2023-02-13T13:45:51.009Z,43.77
2023-02-13T13:48:43.554Z,45.00
2023-02-13T13:51:12.197Z,35.63
2023-02-13T13:53:44.688Z,39.50
2023-02-13T13:56:14.403Z,39.67
2023-02-13T13:58:44.012Z,38.43
2023-02-13T14:01:24.305Z,40.73
2023-02-13T14:03:53.638Z,38.10
2023-02-13T14:06:22.871Z,36.30
2023-02-13T14:09:02.239Z,36.00
2023-02-13T14:11:41.896Z,34.63
2023-02-13T14:14:52.708Z,25.90
2023-02-13T14:17:50.753Z,25.10
2023-02-13T14:20:24.245Z,25.63
2023-02-13T14:22:52.478Z,25.50
2023-02-13T14:25:25.163Z,27.67
2023-02-13T14:28:02.048Z,25.77
2023-02-13T14:30:31.379Z,24.97
2023-02-13T14:33:01.346Z,17.70
2023-02-13T14:35:31.157Z,19.50
2023-02-13T14:38:00.189Z,18.37
2023-02-13T14:40:34.673Z,17.60
2023-02-13T14:43:22.879Z,16.97
2023-02-13T14:45:53.553Z,15.40
2023-02-13T14:48:21.818Z,16.43
2023-02-13T14:50:51.625Z,15.73
2023-02-13T14:53:25.222Z,15.93
2023-02-13T14:55:58.368Z,13.43
2023-02-13T14:58:30.086Z,12.63
2023-02-13T15:01:01.933Z,14.13
2023-02-13T15:03:32.229Z,12.10
2023-02-13T15:06:02.590Z,12.53
2023-02-13T15:08:32.842Z,12.93
2023-02-13T15:11:01.214Z,13.00
2023-02-13T15:13:35.979Z,15.17
2023-02-13T15:16:05.996Z,12.37
2023-02-13T15:18:36.554Z,13.57
2023-02-13T15:21:05.012Z,13.03
2023-02-13T15:23:34.069Z,13.30
2023-02-13T15:26:02.746Z,9.67
2023-02-13T15:28:31.064Z,9.80
2023-02-13T15:31:02.125Z,9.40
2023-02-13T15:33:33.634Z,8.33
2023-02-13T15:36:02.601Z,8.30
2023-02-13T15:38:31.803Z,9.60
2023-02-13T15:41:01.743Z,10.57
2023-02-13T15:43:34.283Z,10.47
2023-02-13T15:46:05.556Z,14.87
2023-02-13T15:48:34.678Z,14.57
2023-02-13T15:51:03.204Z,12.73
2023-02-13T15:53:31.747Z,13.67
2023-02-13T15:56:01.638Z,13.57
2023-02-13T15:58:31.783Z,15.97
2023-02-13T16:01:04.434Z,15.57
2023-02-13T16:03:33.581Z,10.17
2023-02-13T16:06:01.873Z,7.23
2023-02-13T16:08:35.469Z,6.23
2023-02-13T16:11:29.825Z,6.40
2023-02-13T16:14:04.964Z,6.33
2023-02-13T16:16:35.977Z,6.80
2023-02-13T16:19:04.268Z,7.83
2023-02-13T16:21:34.551Z,9.33
2023-02-13T16:24:04.132Z,11.63
2023-02-13T16:26:32.721Z,9.40
2023-02-13T16:29:00.966Z,9.53
2023-02-13T16:31:29.307Z,10.90
2023-02-13T16:33:59.097Z,11.20
2023-02-13T16:36:31.191Z,12.87
2023-02-13T16:38:59.435Z,11.70
2023-02-13T16:41:31.987Z,12.00
2023-02-13T16:44:00.246Z,13.47
2023-02-13T16:46:33.238Z,11.63
2023-02-13T16:49:17.065Z,12.60
2023-02-13T16:51:46.831Z,13.50
2023-02-13T16:54:29.192Z,15.00
2023-02-13T16:56:58.809Z,16.23
2023-02-13T16:59:52.751Z,19.63
2023-02-13T17:02:22.602Z,17.33
2023-02-13T17:04:53.882Z,14.27
2023-02-13T17:07:24.104Z,12.53
2023-02-13T17:09:56.905Z,12.93
2023-02-13T17:12:25.212Z,14.33
2023-02-13T17:14:53.578Z,16.90
2023-02-13T17:17:22.889Z,16.17
2023-02-13T17:19:52.634Z,17.40
2023-02-13T17:22:32.094Z,17.73
2023-02-13T17:25:00.587Z,17.90
2023-02-13T17:27:28.873Z,18.60
2023-02-13T17:29:57.191Z,18.87
2023-02-13T17:32:26.680Z,19.20
2023-02-13T17:34:56.368Z,21.37
2023-02-13T17:37:25.876Z,20.93
2023-02-13T17:39:54.492Z,20.10
2023-02-13T17:42:24.529Z,18.17
2023-02-13T17:44:53.099Z,19.17
2023-02-13T17:47:21.419Z,20.33
2023-02-13T17:49:50.064Z,18.27
2023-02-13T17:52:20.858Z,18.27
2023-02-13T17:54:49.347Z,18.93
2023-02-13T17:57:18.325Z,19.27
2023-02-13T17:59:46.775Z,18.90
2023-02-13T18:02:15.954Z,18.70
2023-02-13T18:04:44.528Z,18.07
2023-02-13T18:07:13.040Z,17.30
2023-02-13T18:09:42.785Z,18.10
2023-02-13T18:12:14.492Z,18.07
2023-02-13T18:14:42.845Z,17.97
2023-02-13T18:17:11.370Z,19.87
2023-02-13T18:19:39.728Z,21.07
2023-02-13T18:22:08.337Z,25.37
2023-02-13T18:24:39.378Z,28.60
2023-02-13T18:27:09.250Z,30.60
2023-02-13T18:29:37.603Z,27.77
2023-02-13T18:32:08.145Z,30.10
2023-02-13T18:34:38.060Z,29.43
2023-02-13T18:37:06.406Z,27.37
2023-02-13T18:39:34.907Z,29.93
2023-02-13T18:42:03.164Z,48.90
2023-02-13T18:44:33.087Z,43.37
2023-02-13T18:47:01.353Z,36.70
2023-02-13T18:49:29.585Z,44.17
2023-02-13T18:51:57.874Z,43.77
2023-02-13T18:54:26.116Z,32.00
2023-02-13T18:56:54.442Z,35.30
2023-02-13T18:59:23.175Z,31.63
2023-02-13T19:01:52.831Z,32.27
2023-02-13T19:04:21.095Z,31.27
2023-02-13T19:06:49.356Z,30.83
2023-02-13T19:09:17.644Z,30.77
2023-02-13T19:11:47.917Z,30.77
2023-02-13T19:14:16.393Z,30.23
2023-02-13T19:16:44.665Z,32.33
2023-02-13T19:19:14.313Z,30.00
2023-02-13T19:21:42.717Z,31.67
2023-02-13T19:24:12.027Z,34.90
2023-02-13T19:26:40.410Z,34.13
2023-02-13T19:29:08.816Z,32.10
2023-02-13T19:31:37.209Z,33.43
2023-02-13T19:34:06.716Z,35.57
2023-02-13T19:36:36.388Z,38.40
2023-02-13T19:39:06.310Z,35.73
2023-02-13T19:41:34.618Z,34.20
2023-02-13T19:44:02.824Z,39.97
2023-02-13T19:46:31.949Z,41.33
2023-02-13T19:49:00.357Z,47.90
2023-02-13T19:51:29.548Z,40.80
2023-02-13T19:53:59.422Z,46.17
2023-02-13T19:56:27.759Z,43.67
2023-02-13T19:58:56.007Z,44.10
2023-02-13T20:01:25.249Z,44.80
2023-02-13T20:03:53.809Z,42.57
2023-02-13T20:06:22.833Z,41.27
2023-02-13T20:08:51.242Z,40.87
2023-02-13T20:11:21.701Z,39.67
2023-02-13T20:13:49.939Z,39.30
2023-02-13T20:16:18.624Z,38.67
2023-02-13T20:18:46.951Z,39.93
2023-02-13T20:21:16.069Z,40.47
2023-02-13T20:23:44.672Z,41.93
2023-02-13T20:26:14.798Z,39.83
2023-02-13T20:28:45.095Z,40.23
2023-02-13T20:31:14.271Z,38.13
2023-02-13T20:33:43.102Z,38.00
2023-02-13T20:36:12.286Z,39.50
2023-02-13T20:38:40.556Z,39.50
2023-02-13T20:41:09.924Z,39.40
2023-02-13T20:43:38.238Z,40.00
2023-02-13T20:46:08.098Z,42.10
2023-02-13T20:48:37.027Z,44.80
2023-02-13T20:51:06.355Z,45.23
2023-02-13T20:53:34.598Z,46.87
2023-02-13T20:56:04.445Z,48.73
2023-02-13T20:58:32.874Z,51.17
2023-02-13T21:01:01.711Z,49.90
2023-02-13T21:03:31.633Z,48.23
2023-02-13T21:06:00.117Z,47.33
2023-02-13T21:08:28.420Z,45.80
2023-02-13T21:11:01.522Z,46.20
2023-02-13T21:13:29.860Z,48.00
2023-02-13T21:16:06.889Z,47.93
2023-02-13T21:18:36.796Z,47.50
2023-02-13T21:21:05.357Z,48.23
2023-02-13T21:23:33.636Z,54.40
2023-02-13T21:26:03.921Z,49.83
2023-02-13T21:28:32.273Z,48.10
2023-02-13T21:31:01.068Z,53.00
2023-02-13T21:33:29.507Z,55.20
2023-02-13T21:36:06.182Z,57.07
2023-02-13T21:38:34.486Z,56.57
2023-02-13T21:41:08.357Z,60.63
2023-02-13T21:43:37.838Z,58.03
2023-02-13T21:46:09.962Z,51.50
2023-02-13T21:48:38.266Z,54.83
2023-02-13T21:51:08.696Z,57.13
2023-02-13T21:53:36.961Z,60.73
2023-02-13T21:56:07.096Z,59.43
2023-02-13T21:58:35.396Z,61.60
2023-02-13T22:01:04.306Z,59.50
2023-02-13T22:03:32.609Z,57.13
2023-02-13T22:06:00.957Z,59.03
2023-02-13T22:08:30.596Z,56.83
2023-02-13T22:10:59.816Z,52.87
2023-02-13T22:13:28.384Z,58.83
2023-02-13T22:16:02.804Z,57.50
2023-02-13T22:18:32.215Z,59.70
2023-02-13T22:21:01.432Z,62.50
2023-02-13T22:23:31.069Z,58.80
2023-02-13T22:25:59.343Z,55.67
2023-02-13T22:28:27.850Z,57.53
2023-02-13T22:30:56.317Z,52.40
2023-02-13T22:33:24.750Z,58.87
2023-02-13T22:35:53.041Z,56.43
2023-02-13T22:38:21.324Z,54.70
2023-02-13T22:40:51.003Z,55.70
2023-02-13T22:43:19.301Z,53.17
2023-02-13T22:45:47.619Z,55.17
2023-02-13T22:48:15.870Z,53.83
2023-02-13T22:50:44.128Z,52.93
2023-02-13T22:53:12.337Z,51.37
2023-02-13T22:55:40.558Z,53.87
2023-02-13T22:58:10.223Z,52.23
2023-02-13T23:00:38.515Z,55.10
2023-02-13T23:03:06.817Z,52.17
2023-02-13T23:05:35.076Z,52.83
2023-02-13T23:08:03.340Z,52.57
2023-02-13T23:10:31.650Z,57.77
2023-02-13T23:12:58.857Z,59.47
2023-02-13T23:15:28.577Z,59.00
2023-02-13T23:18:13.690Z,61.03
2023-02-13T23:20:42.083Z,58.77
2023-02-13T23:23:10.485Z,61.33
2023-02-13T23:25:38.904Z,59.20
2023-02-13T23:28:07.530Z,62.77
2023-02-13T23:30:37.165Z,62.23
2023-02-13T23:33:05.479Z,62.17
2023-02-13T23:35:33.774Z,64.83
2023-02-13T23:38:01.992Z,62.20
2023-02-13T23:40:30.338Z,63.07
2023-02-13T23:42:58.558Z,62.17
2023-02-13T23:45:26.820Z,52.57
2023-02-13T23:47:56.441Z,49.23
2023-02-13T23:50:24.699Z,46.80
2023-02-13T23:52:52.993Z,48.10
2023-02-13T23:55:21.289Z,49.07
2023-02-13T23:57:52.057Z,50.57
